createdAt,value
2022-12-12T00:00:27.787Z,86.74
2022-12-12T00:05:51.529Z,86.67
2022-12-12T00:11:14.189Z,86.52
2022-12-12T00:16:37.056Z,86.40
2022-12-12T00:21:59.649Z,86.27
2022-12-12T00:27:22.471Z,86.05
2022-12-12T00:32:44.736Z,85.76
2022-12-12T00:38:07.062Z,85.48
2022-12-12T00:43:29.605Z,85.38
2022-12-12T00:48:51.954Z,84.89
2022-12-12T00:54:14.591Z,84.75
2022-12-12T00:59:36.860Z,84.58
2022-12-12T01:04:59.196Z,84.44
2022-12-12T01:10:23.003Z,84.27
2022-12-12T01:15:45.516Z,84.08
2022-12-12T01:21:07.977Z,83.82
2022-12-12T01:26:33.953Z,83.68
2022-12-12T01:31:56.134Z,83.60
2022-12-12T01:37:18.414Z,83.57
2022-12-12T01:42:41.865Z,83.52
2022-12-12T01:48:05.565Z,83.55
2022-12-12T01:53:30.085Z,83.35
2022-12-12T01:58:54.672Z,83.29
2022-12-12T02:04:19.631Z,83.28
2022-12-12T02:09:44.972Z,83.35
2022-12-12T02:15:08.425Z,83.69
2022-12-12T02:20:44.540Z,83.70
2022-12-12T02:26:49.380Z,83.81
2022-12-12T02:32:20.107Z,83.75
2022-12-12T02:37:50.305Z,83.81
2022-12-12T02:43:26.944Z,83.85
2022-12-12T02:49:19.225Z,83.75
2022-12-12T02:54:42.176Z,83.60
2022-12-12T03:00:15.649Z,83.38
2022-12-12T03:06:05.814Z,83.39
2022-12-12T03:18:03.539Z,84.32
2022-12-12T03:23:30.698Z,83.76
2022-12-12T03:28:57.764Z,84.15
2022-12-12T03:34:33.302Z,84.67
2022-12-12T03:40:05.013Z,85.21
2022-12-12T03:45:49.541Z,85.75
2022-12-12T03:51:31.961Z,86.27
2022-12-12T03:57:05.008Z,86.95
2022-12-12T04:02:52.076Z,87.54
2022-12-12T04:08:23.559Z,88.15
2022-12-12T04:14:05.642Z,88.91
2022-12-12T04:19:56.682Z,89.36
2022-12-12T04:25:25.456Z,89.43
2022-12-12T04:30:50.442Z,89.97
2022-12-12T04:36:15.290Z,89.86
2022-12-12T04:41:41.910Z,89.68
2022-12-12T04:47:07.453Z,89.68
2022-12-12T04:52:32.767Z,90.01
2022-12-12T04:57:59.692Z,90.32
2022-12-12T05:03:48.722Z,90.70
2022-12-12T05:09:14.337Z,90.93
2022-12-12T05:14:37.759Z,91.15
2022-12-12T05:19:59.948Z,91.33
2022-12-12T05:25:22.651Z,91.46
2022-12-12T05:30:45.461Z,91.32
2022-12-12T05:36:07.672Z,91.42
2022-12-12T05:41:30.084Z,91.62
2022-12-12T05:46:52.404Z,92.06
2022-12-12T05:52:14.613Z,92.77
2022-12-12T05:57:37.387Z,93.40
2022-12-12T06:03:00.112Z,93.96
2022-12-12T06:08:25.214Z,94.38
2022-12-12T06:13:47.509Z,95.17
2022-12-12T06:19:10.949Z,95.88
2022-12-12T06:24:33.717Z,96.70
2022-12-12T06:29:55.882Z,97.70
2022-12-12T06:35:18.522Z,98.67
2022-12-12T06:40:41.568Z,100.00
2022-12-12T06:46:05.512Z,100.00
2022-12-12T06:51:35.977Z,100.00
2022-12-12T06:56:58.628Z,100.00
2022-12-12T07:02:29.276Z,100.00
2022-12-12T07:07:47.135Z,100.00
2022-12-12T07:13:09.489Z,100.00
2022-12-12T07:18:33.060Z,100.00
2022-12-12T07:23:55.299Z,100.00
2022-12-12T07:29:19.113Z,100.00
2022-12-12T07:34:43.745Z,100.00
2022-12-12T07:40:08.694Z,100.00
2022-12-12T07:45:33.190Z,100.00
2022-12-12T07:50:58.192Z,100.00
2022-12-12T07:56:25.463Z,100.00
2022-12-12T08:01:50.138Z,100.00
2022-12-12T08:07:15.527Z,100.00
2022-12-12T08:12:41.541Z,100.00
2022-12-12T08:18:06.264Z,100.00
2022-12-12T08:23:31.493Z,100.00
2022-12-12T08:28:55.647Z,100.00
2022-12-12T08:34:19.790Z,100.00
2022-12-12T08:39:44.575Z,100.00
2022-12-12T08:45:09.842Z,98.33
2022-12-12T08:50:33.814Z,95.82
2022-12-12T08:55:59.259Z,93.07
2022-12-12T09:01:25.610Z,90.39
2022-12-12T09:06:48.909Z,88.23
2022-12-12T09:12:13.152Z,86.36
2022-12-12T09:17:37.825Z,84.74
2022-12-12T09:23:02.324Z,83.78
2022-12-12T09:28:27.700Z,83.44
2022-12-12T09:33:52.998Z,83.01
2022-12-12T09:39:17.414Z,82.87
2022-12-12T09:44:42.121Z,82.62
2022-12-12T09:50:14.582Z,82.17
2022-12-12T09:56:17.722Z,82.74
2022-12-12T10:02:01.772Z,81.64
2022-12-12T10:07:58.442Z,81.48
2022-12-12T10:13:37.173Z,81.22
2022-12-12T10:19:05.612Z,80.92
2022-12-12T10:24:48.886Z,80.67
2022-12-12T10:30:22.924Z,80.29
2022-12-12T10:35:57.780Z,79.99
2022-12-12T10:41:30.128Z,79.70
2022-12-12T10:47:02.268Z,79.45
2022-12-12T10:52:40.773Z,79.10
2022-12-12T10:58:17.036Z,78.90
2022-12-12T11:03:54.520Z,78.39
2022-12-12T11:09:23.405Z,78.16
2022-12-12T11:14:57.323Z,77.83
2022-12-12T11:20:25.233Z,77.51
2022-12-12T11:25:51.044Z,77.27
2022-12-12T11:31:21.618Z,77.66
2022-12-12T11:36:54.810Z,77.81
2022-12-12T11:42:35.297Z,78.06
2022-12-12T11:48:02.317Z,78.43
2022-12-12T11:53:28.610Z,77.89
2022-12-12T11:59:07.272Z,78.15
2022-12-12T12:04:58.452Z,78.38
2022-12-12T12:10:54.443Z,78.57
2022-12-12T12:16:41.705Z,78.60
2022-12-12T12:22:11.018Z,78.74
2022-12-12T12:27:57.537Z,78.70
2022-12-12T12:33:44.988Z,78.68
2022-12-12T12:39:28.836Z,78.86
2022-12-12T12:45:16.300Z,79.32
2022-12-12T12:50:45.836Z,79.56
2022-12-12T13:01:58.310Z,80.34
2022-12-12T13:07:39.111Z,80.19
2022-12-12T13:13:27.983Z,80.21
2022-12-12T13:18:55.664Z,80.00
2022-12-12T13:24:34.450Z,79.90
2022-12-12T13:30:09.103Z,79.92
2022-12-12T13:35:56.937Z,79.79
2022-12-12T13:41:25.959Z,79.79
2022-12-12T13:46:56.931Z,79.96
2022-12-12T13:52:43.175Z,80.21
2022-12-12T13:58:41.616Z,80.61
2022-12-12T14:04:07.270Z,81.04
2022-12-12T14:09:47.914Z,81.60
2022-12-12T14:15:16.171Z,82.20
2022-12-12T14:21:03.980Z,82.60
2022-12-12T14:26:50.536Z,82.96
2022-12-12T14:32:39.821Z,83.28
2022-12-12T14:38:18.071Z,83.66
2022-12-12T14:43:47.065Z,84.10
2022-12-12T14:49:27.766Z,84.30
2022-12-12T14:54:53.146Z,84.61
2022-12-12T15:00:24.983Z,84.93
2022-12-12T15:05:48.572Z,85.16
2022-12-12T15:11:22.708Z,85.45
2022-12-12T15:16:50.587Z,85.79
2022-12-12T15:22:19.301Z,86.12
2022-12-12T15:27:52.336Z,86.56
2022-12-12T15:33:15.491Z,87.23
2022-12-12T15:38:40.537Z,88.03
2022-12-12T15:44:04.536Z,89.21
2022-12-12T15:49:51.174Z,91.05
2022-12-12T15:55:27.735Z,92.84
2022-12-12T16:00:58.626Z,94.37
2022-12-12T16:06:32.038Z,94.89
2022-12-12T16:12:03.391Z,94.91
2022-12-12T16:17:39.425Z,94.86
2022-12-12T16:23:16.715Z,94.87
2022-12-12T16:28:43.096Z,94.66
2022-12-12T16:34:09.284Z,94.29
2022-12-12T16:39:33.524Z,94.04
2022-12-12T16:44:56.355Z,93.97
2022-12-12T16:50:20.345Z,93.87
2022-12-12T16:55:43.988Z,93.93
2022-12-12T17:01:06.616Z,94.06
2022-12-12T17:06:28.883Z,94.48
2022-12-12T17:11:52.115Z,95.22
2022-12-12T17:17:14.369Z,95.96
2022-12-12T17:22:38.829Z,96.50
2022-12-12T17:28:04.890Z,97.03
2022-12-12T17:33:28.398Z,97.28
2022-12-12T17:38:52.671Z,97.36
2022-12-12T17:44:16.442Z,97.33
2022-12-12T17:49:40.855Z,97.12
2022-12-12T17:55:54.330Z,96.77
2022-12-12T18:00:31.431Z,96.02
2022-12-12T18:05:54.591Z,95.61
2022-12-12T18:11:25.089Z,95.79
2022-12-12T18:16:53.758Z,96.43
2022-12-12T18:22:16.730Z,97.74
2022-12-12T18:27:40.770Z,99.39
2022-12-12T18:33:03.424Z,100.00
2022-12-12T18:38:25.819Z,100.00
2022-12-12T18:43:49.680Z,100.00
2022-12-12T18:49:14.610Z,100.00
2022-12-12T18:54:36.830Z,100.00
2022-12-12T18:59:59.603Z,100.00
2022-12-12T19:05:23.796Z,100.00
2022-12-12T19:10:47.843Z,100.00
2022-12-12T19:16:16.205Z,100.00
2022-12-12T19:21:40.898Z,100.00
2022-12-12T19:27:03.829Z,100.00
2022-12-12T19:32:26.585Z,100.00
2022-12-12T19:37:48.849Z,100.00
2022-12-12T19:43:11.583Z,100.00
2022-12-12T19:48:34.169Z,100.00
2022-12-12T19:54:00.455Z,100.00
2022-12-12T19:59:27.439Z,100.00
2022-12-12T20:04:49.915Z,100.00
2022-12-12T20:10:13.729Z,100.00
2022-12-12T20:15:36.988Z,100.00
2022-12-12T20:26:37.475Z,100.00
2022-12-12T20:32:02.459Z,100.00
2022-12-12T20:37:24.750Z,100.00
2022-12-12T20:42:54.118Z,100.00
2022-12-12T20:48:10.982Z,99.67
2022-12-12T20:53:36.377Z,98.86
2022-12-12T20:59:01.558Z,97.92
2022-12-12T21:04:26.222Z,97.44
2022-12-12T21:09:48.484Z,96.86
2022-12-12T21:15:12.489Z,96.91
2022-12-12T21:20:35.325Z,97.40
2022-12-12T21:25:57.587Z,97.34
2022-12-12T21:31:29.495Z,96.10
2022-12-12T21:36:52.309Z,93.75
2022-12-12T21:42:15.043Z,92.20
2022-12-12T21:47:37.646Z,91.30
2022-12-12T21:53:17.661Z,90.86
2022-12-12T21:58:33.609Z,90.87
2022-12-12T22:03:57.156Z,90.42
2022-12-12T22:09:21.307Z,89.42
2022-12-12T22:14:44.687Z,88.64
2022-12-12T22:20:07.106Z,87.72
2022-12-12T22:25:29.481Z,87.12
2022-12-12T22:30:51.672Z,87.00
2022-12-12T22:36:21.087Z,87.38
2022-12-12T22:41:43.447Z,88.09
2022-12-12T22:47:07.877Z,88.84
2022-12-12T22:52:30.203Z,89.31
2022-12-12T22:57:52.366Z,89.51
2022-12-12T23:03:14.544Z,90.04
2022-12-12T23:08:36.856Z,90.66
2022-12-12T23:14:04.249Z,91.40
2022-12-12T23:19:30.156Z,92.20
2022-12-12T23:24:52.368Z,93.34
2022-12-12T23:30:15.266Z,94.55
2022-12-12T23:35:37.443Z,95.70
2022-12-12T23:41:00.451Z,97.24
2022-12-12T23:46:34.671Z,98.96
2022-12-12T23:52:06.380Z,100.00
2022-12-12T23:57:29.118Z,100.00
